Terminal Aerodrome Forecast
Issued by NWS

Home | Current Version | Previous Version | Text Only | Print | Product List | Glossary On
Versions: 1 2 3 4 5 6 7 8 9 10 11 12 13 14 15 16
000
FTUS43 KMQT 210800 AAA
TAFIWD
TAF AMD
KIWD 210830Z 2108/2206 07003KT P6SM BKN025
     FM211400 14007KT P6SM SCT025
     FM212200 14007KT P6SM -RA OVC035
     FM220200 13005KT 6SM -RA OVC015
      AMD NOT SKED=

USA.gov is the U.S. government's official web portal to all federal, state and local government web resources and services.